Time;durP1;ratioP1;P1;durP2;ratioP2;P2;SDS_P1;SDS_P2;PMS_P1;PMS_P2;Temp;Humidity;BMP_temperature;BMP_pressure;BME280_temperature;BME280_humidity;BME280_pressure;Samples;Min_cycle;Max_cycle;Signal;HPM_P1;HPM_P2
2023/11/16 00:02:05;;;;;;;1.30;1.20;;;;;;;;;;10003823;28;20135;-72
2023/11/16 00:06:58;;;;;;;2.42;1.27;;;;;;;;;;9987438;28;20100;-72
2023/11/16 00:11:50;;;;;;;2.10;1.55;;;;;;;;;;10020024;28;20362;-72
2023/11/16 00:16:44;;;;;;;1.95;1.75;;;;;;;;;;10023603;28;20052;-72
2023/11/16 00:21:36;;;;;;;6.28;2.20;;;;;;;;;;10022996;28;20046;-72
2023/11/16 00:26:28;;;;;;;2.95;2.30;;;;;;;;;;10023643;28;20149;-72
2023/11/16 00:31:23;;;;;;;5.88;2.65;;;;;;;;;;10017674;28;20054;-72
2023/11/16 00:36:15;;;;;;;5.95;3.40;;;;;;;;;;10023454;28;20480;-72
2023/11/16 00:41:08;;;;;;;2.83;2.15;;;;;;;;;;10021417;28;20362;-72
2023/11/16 00:46:01;;;;;;;2.00;1.88;;;;;;;;;;10018840;28;20038;-72
2023/11/16 00:50:53;;;;;;;2.95;2.30;;;;;;;;;;9996415;28;20445;-72
2023/11/16 00:55:45;;;;;;;2.75;1.98;;;;;;;;;;10022729;28;20129;-72
2023/11/16 01:00:38;;;;;;;2.72;2.00;;;;;;;;;;10022910;28;20058;-72
2023/11/16 01:05:30;;;;;;;1.63;1.52;;;;;;;;;;10023641;28;20055;-72
2023/11/16 01:10:24;;;;;;;3.60;1.45;;;;;;;;;;10023708;28;20098;-72
2023/11/16 01:15:16;;;;;;;1.17;1.02;;;;;;;;;;10024099;28;20042;-72
2023/11/16 01:20:18;;;;;;;1.67;1.20;;;;;;;;;;10015513;28;20053;-72
2023/11/16 01:25:15;;;;;;;1.25;1.08;;;;;;;;;;10023654;28;20054;-72
2023/11/16 01:30:09;;;;;;;1.55;1.27;;;;;;;;;;10029085;28;20101;-72
2023/11/16 01:35:04;;;;;;;5.35;1.20;;;;;;;;;;10028991;28;20050;-72
2023/11/16 01:39:57;;;;;;;3.60;1.02;;;;;;;;;;10027840;28;20081;-72
2023/11/16 01:44:49;;;;;;;2.53;1.15;;;;;;;;;;10010903;28;20061;-72
2023/11/16 01:49:43;;;;;;;0.80;0.80;;;;;;;;;;10027490;28;20045;-72
2023/11/16 01:54:35;;;;;;;1.02;0.90;;;;;;;;;;10027149;28;20046;-72
2023/11/16 01:59:28;;;;;;;1.10;0.88;;;;;;;;;;10026554;28;20048;-72
2023/11/16 02:04:22;;;;;;;0.82;0.82;;;;;;;;;;10026918;28;20046;-72
2023/11/16 02:09:15;;;;;;;1.70;1.55;;;;;;;;;;10026488;28;20480;-72
2023/11/16 02:14:07;;;;;;;1.10;0.90;;;;;;;;;;9995079;28;20092;-72
2023/11/16 02:19:26;;;;;;;2.00;1.00;;;;;;;;;;10031687;28;20050;-72
2023/11/16 02:24:18;;;;;;;3.35;0.90;;;;;;;;;;10014552;28;20050;-72
2023/11/16 02:29:10;;;;;;;1.20;1.00;;;;;;;;;;10024983;28;20044;-72
2023/11/16 02:34:02;;;;;;;1.20;1.00;;;;;;;;;;10027535;28;20100;-72
2023/11/16 02:38:54;;;;;;;2.92;1.10;;;;;;;;;;10028062;28;20045;-72
2023/11/16 02:43:46;;;;;;;5.55;1.30;;;;;;;;;;10026877;28;20440;-72
2023/11/16 02:48:37;;;;;;;0.90;0.90;;;;;;;;;;10025921;28;20065;-72
2023/11/16 02:53:29;;;;;;;1.98;1.10;;;;;;;;;;10023685;28;20038;-72
2023/11/16 02:58:22;;;;;;;0.90;0.90;;;;;;;;;;10024738;28;20503;-71
2023/11/16 03:03:13;;;;;;;0.88;0.88;;;;;;;;;;10020006;28;20552;-72
2023/11/16 03:08:05;;;;;;;0.70;0.70;;;;;;;;;;10028525;28;20422;-72
2023/11/16 03:12:57;;;;;;;1.23;1.17;;;;;;;;;;10028009;28;20034;-72
2023/11/16 03:17:50;;;;;;;0.90;0.80;;;;;;;;;;10025812;28;20056;-72
2023/11/16 03:22:43;;;;;;;0.88;0.85;;;;;;;;;;10025170;28;20153;-72
2023/11/16 03:27:35;;;;;;;0.90;0.90;;;;;;;;;;10024521;28;20469;-72
2023/11/16 03:32:28;;;;;;;2.40;1.10;;;;;;;;;;10024951;28;20355;-72
2023/11/16 03:37:20;;;;;;;3.40;1.00;;;;;;;;;;10026944;28;20149;-72
2023/11/16 03:42:12;;;;;;;2.65;0.82;;;;;;;;;;10022237;28;20050;-72
2023/11/16 03:47:04;;;;;;;1.45;1.35;;;;;;;;;;10025567;28;20799;-72
2023/11/16 03:51:57;;;;;;;1.95;1.40;;;;;;;;;;10022596;28;20049;-72
2023/11/16 03:56:55;;;;;;;4.57;2.25;;;;;;;;;;10023893;28;20038;-72
2023/11/16 04:01:48;;;;;;;2.63;2.03;;;;;;;;;;10020769;28;20077;-72
2023/11/16 04:06:41;;;;;;;2.60;2.40;;;;;;;;;;10029840;28;20081;-72
2023/11/16 04:11:43;;;;;;;2.65;2.15;;;;;;;;;;10023953;28;20057;-72
2023/11/16 04:16:35;;;;;;;2.72;2.35;;;;;;;;;;10023293;28;20053;-72
2023/11/16 04:21:28;;;;;;;2.97;1.63;;;;;;;;;;10024789;28;20334;-72
2023/11/16 04:26:24;;;;;;;1.58;1.48;;;;;;;;;;10022229;28;20449;-72
2023/11/16 04:31:16;;;;;;;1.60;1.30;;;;;;;;;;10023945;28;20054;-71
2023/11/16 04:36:09;;;;;;;0.90;0.90;;;;;;;;;;10021753;28;20046;-72
2023/11/16 04:41:04;;;;;;;3.50;1.10;;;;;;;;;;10021421;28;20422;-72
2023/11/16 04:45:56;;;;;;;1.38;1.05;;;;;;;;;;10024885;28;20092;-71
2023/11/16 04:50:48;;;;;;;1.55;1.45;;;;;;;;;;10022086;28;20862;-72
2023/11/16 04:55:40;;;;;;;2.25;1.10;;;;;;;;;;10022021;28;20050;-72
2023/11/16 05:00:33;;;;;;;1.33;1.00;;;;;;;;;;10024774;28;20434;-72
2023/11/16 05:05:24;;;;;;;1.20;1.10;;;;;;;;;;10030126;28;20354;-72
2023/11/16 05:10:16;;;;;;;1.45;1.35;;;;;;;;;;10031260;28;20042;-72
2023/11/16 05:15:10;;;;;;;0.95;0.88;;;;;;;;;;10030895;28;20038;-72
2023/11/16 05:20:04;;;;;;;0.93;0.93;;;;;;;;;;10030705;28;20050;-72
2023/11/16 05:24:56;;;;;;;1.88;1.10;;;;;;;;;;10030680;28;20046;-72
2023/11/16 05:29:47;;;;;;;1.40;1.20;;;;;;;;;;10026459;28;20053;-72
2023/11/16 05:34:40;;;;;;;3.67;1.77;;;;;;;;;;10031371;28;20096;-72
2023/11/16 05:39:31;;;;;;;1.13;1.08;;;;;;;;;;10028745;28;20046;-72
2023/11/16 05:44:24;;;;;;;1.20;1.10;;;;;;;;;;10028915;28;20057;-72
2023/11/16 05:49:16;;;;;;;1.38;1.27;;;;;;;;;;10029411;28;20050;-71
2023/11/16 05:54:07;;;;;;;2.55;1.00;;;;;;;;;;10028034;28;20365;-71
2023/11/16 05:59:00;;;;;;;1.65;1.33;;;;;;;;;;10028037;28;20152;-71
2023/11/16 06:03:51;;;;;;;1.50;1.40;;;;;;;;;;10032864;28;20049;-71
2023/11/16 06:08:43;;;;;;;2.22;1.20;;;;;;;;;;10025204;28;20038;-72
2023/11/16 06:13:37;;;;;;;1.40;1.10;;;;;;;;;;10029348;28;20100;-72
2023/11/16 06:18:29;;;;;;;1.98;1.55;;;;;;;;;;10027813;28;20045;-72
2023/11/16 06:23:21;;;;;;;2.10;1.60;;;;;;;;;;10029062;28;20046;-71
2023/11/16 06:28:13;;;;;;;10.02;5.55;;;;;;;;;;10027843;28;20057;-74
2023/11/16 06:33:05;;;;;;;15.77;11.65;;;;;;;;;;10037310;28;20508;-72
2023/11/16 06:37:57;;;;;;;4.90;3.30;;;;;;;;;;10066081;28;20092;-72
2023/11/16 06:42:49;;;;;;;4.57;1.13;;;;;;;;;;10063541;28;20339;-72
2023/11/16 06:47:41;;;;;;;2.00;1.40;;;;;;;;;;10065456;28;20054;-71
2023/11/16 06:52:36;;;;;;;1.63;1.25;;;;;;;;;;10064510;28;20046;-72
2023/11/16 06:57:28;;;;;;;1.00;1.00;;;;;;;;;;10057785;28;20487;-71
2023/11/16 07:02:22;;;;;;;1.25;1.17;;;;;;;;;;10054825;28;20106;-72
2023/11/16 07:07:15;;;;;;;3.65;1.13;;;;;;;;;;10059647;28;20038;-72
2023/11/16 07:12:08;;;;;;;1.48;1.38;;;;;;;;;;10063501;28;20076;-72
2023/11/16 07:17:00;;;;;;;2.08;1.45;;;;;;;;;;10060186;28;20055;-72
2023/11/16 07:21:52;;;;;;;1.00;1.00;;;;;;;;;;10059869;28;20049;-72
2023/11/16 07:26:44;;;;;;;1.85;1.30;;;;;;;;;;10059736;28;20475;-72
2023/11/16 07:31:37;;;;;;;5.63;2.85;;;;;;;;;;10060324;28;20593;-72
2023/11/16 07:36:29;;;;;;;5.03;3.00;;;;;;;;;;10044873;28;20052;-72
2023/11/16 07:41:21;;;;;;;6.63;3.50;;;;;;;;;;9999785;28;20068;-72
2023/11/16 07:46:13;;;;;;;5.45;4.03;;;;;;;;;;10016827;28;20060;-72
2023/11/16 07:51:07;;;;;;;8.20;3.10;;;;;;;;;;10016582;28;20052;-72
2023/11/16 07:56:05;;;;;;;9.07;3.40;;;;;;;;;;10018174;28;20499;-72
2023/11/16 08:01:04;;;;;;;11.73;3.97;;;;;;;;;;10017347;28;20156;-72
2023/11/16 08:05:56;;;;;;;6.07;3.63;;;;;;;;;;10008171;28;20490;-72
2023/11/16 08:10:50;;;;;;;7.13;3.55;;;;;;;;;;10020973;28;20045;-72
2023/11/16 08:15:42;;;;;;;4.15;3.75;;;;;;;;;;10014141;28;20543;-72
2023/11/16 08:20:35;;;;;;;5.22;3.83;;;;;;;;;;10015251;28;20499;-72
2023/11/16 08:25:28;;;;;;;7.00;3.60;;;;;;;;;;10014960;28;20125;-72
2023/11/16 08:30:24;;;;;;;8.48;4.70;;;;;;;;;;10016070;28;20100;-72
2023/11/16 08:35:18;;;;;;;6.35;3.95;;;;;;;;;;10021367;28;20137;-72
2023/11/16 08:40:12;;;;;;;7.25;4.10;;;;;;;;;;10021892;28;20057;-72
2023/11/16 08:45:05;;;;;;;16.30;5.35;;;;;;;;;;10022132;28;20133;-72
2023/11/16 08:49:57;;;;;;;5.30;4.05;;;;;;;;;;10020470;28;20049;-72
2023/11/16 08:54:50;;;;;;;6.35;4.57;;;;;;;;;;10026150;28;20046;-72
2023/11/16 08:59:59;;;;;;;7.97;4.38;;;;;;;;;;10024411;28;20428;-72
2023/11/16 09:04:52;;;;;;;5.78;4.75;;;;;;;;;;10022436;28;20130;-72
2023/11/16 09:09:46;;;;;;;4.95;4.32;;;;;;;;;;10024824;28;20362;-72
2023/11/16 09:14:40;;;;;;;9.20;5.75;;;;;;;;;;10024394;28;20056;-72
2023/11/16 09:19:32;;;;;;;7.97;5.53;;;;;;;;;;10025065;28;20520;-72
2023/11/16 09:24:27;;;;;;;11.00;5.63;;;;;;;;;;10018365;28;20068;-72
2023/11/16 09:29:19;;;;;;;12.57;6.25;;;;;;;;;;10013652;28;20050;-72
2023/11/16 09:34:10;;;;;;;6.75;4.95;;;;;;;;;;10016394;28;20092;-72
2023/11/16 09:39:07;;;;;;;11.93;5.60;;;;;;;;;;10024746;28;20050;-72
2023/11/16 09:44:05;;;;;;;7.93;5.22;;;;;;;;;;10022321;28;20096;-72
2023/11/16 09:49:05;;;;;;;7.07;5.60;;;;;;;;;;10016915;28;20054;-72
2023/11/16 09:53:58;;;;;;;12.68;5.38;;;;;;;;;;10022816;28;20066;-72
2023/11/16 09:58:53;;;;;;;6.90;5.75;;;;;;;;;;10022362;28;20088;-72
2023/11/16 10:03:48;;;;;;;10.88;6.65;;;;;;;;;;10022146;28;20041;-72
2023/11/16 10:08:40;;;;;;;8.50;5.72;;;;;;;;;;10018449;28;20133;-72
2023/11/16 10:13:34;;;;;;;12.90;6.30;;;;;;;;;;10022291;28;20038;-71
2023/11/16 10:18:26;;;;;;;11.60;6.13;;;;;;;;;;10009135;28;20133;-71
2023/11/16 10:23:19;;;;;;;8.38;5.63;;;;;;;;;;10008188;28;20049;-72
2023/11/16 10:28:14;;;;;;;5.82;4.85;;;;;;;;;;10012739;28;20044;-71
2023/11/16 10:33:09;;;;;;;12.73;5.65;;;;;;;;;;10016341;28;20062;-71
2023/11/16 10:38:01;;;;;;;9.55;5.57;;;;;;;;;;10022328;28;20492;-72
2023/11/16 10:42:56;;;;;;;8.05;5.28;;;;;;;;;;10019237;28;20576;-72
2023/11/16 10:47:50;;;;;;;7.32;5.63;;;;;;;;;;10020930;28;20046;-72
2023/11/16 10:52:43;;;;;;;6.45;5.18;;;;;;;;;;10016608;28;20135;-71
2023/11/16 10:57:36;;;;;;;6.93;5.22;;;;;;;;;;10019451;28;20074;-72
2023/11/16 11:02:29;;;;;;;6.22;5.13;;;;;;;;;;10016712;28;20052;-71
2023/11/16 11:07:23;;;;;;;7.00;4.78;;;;;;;;;;10008017;28;20050;-71
2023/11/16 11:12:24;;;;;;;7.38;4.50;;;;;;;;;;10018291;28;20053;-71
2023/11/16 11:17:18;;;;;;;;;;;;;;;;;;10012347;28;20073;-72
2023/11/16 11:22:15;;;;;;;5.35;4.65;;;;;;;;;;10019776;28;19944;-72
2023/11/16 11:27:08;;;;;;;6.47;5.18;;;;;;;;;;10012724;28;20111;-72
2023/11/16 11:32:14;;;;;;;6.50;4.82;;;;;;;;;;10019719;28;20112;-72
2023/11/16 11:37:10;;;;;;;6.97;5.28;;;;;;;;;;10011422;28;20050;-72
2023/11/16 11:42:09;;;;;;;13.32;5.30;;;;;;;;;;10017757;28;20046;-72
2023/11/16 11:47:01;;;;;;;12.25;6.22;;;;;;;;;;10018646;28;20044;-72
2023/11/16 11:51:54;;;;;;;7.93;5.35;;;;;;;;;;10008946;28;20516;-71
2023/11/16 11:56:47;;;;;;;8.75;4.40;;;;;;;;;;10008834;28;20045;-72
2023/11/16 12:01:39;;;;;;;8.07;5.05;;;;;;;;;;10010822;28;20056;-72
2023/11/16 12:06:31;;;;;;;7.20;5.05;;;;;;;;;;10020890;28;20119;-71
2023/11/16 12:11:26;;;;;;;6.25;5.45;;;;;;;;;;10022568;28;20477;-72
2023/11/16 12:16:18;;;;;;;6.28;5.60;;;;;;;;;;10023608;28;20038;-71
2023/11/16 12:21:20;;;;;;;9.32;6.50;;;;;;;;;;10021611;28;20077;-72
2023/11/16 12:26:14;;;;;;;9.40;6.93;;;;;;;;;;10017606;28;20061;-71
2023/11/16 12:31:06;;;;;;;8.35;6.13;;;;;;;;;;10017016;28;20129;-71
2023/11/16 12:35:59;;;;;;;12.43;5.97;;;;;;;;;;10020292;28;20040;-71
2023/11/16 12:40:50;;;;;;;13.00;6.80;;;;;;;;;;10021961;28;20370;-71
2023/11/16 12:45:42;;;;;;;8.60;5.93;;;;;;;;;;10020768;28;20394;-71
2023/11/16 12:50:34;;;;;;;10.23;5.65;;;;;;;;;;10018915;28;20481;-73
2023/11/16 12:55:26;;;;;;;7.55;5.57;;;;;;;;;;10021346;28;20527;-71
2023/11/16 13:00:19;;;;;;;6.05;4.93;;;;;;;;;;10021408;28;20046;-73
2023/11/16 13:05:17;;;;;;;6.55;5.72;;;;;;;;;;10009483;28;20057;-73
2023/11/16 13:10:09;;;;;;;10.10;6.47;;;;;;;;;;10009219;28;20046;-73
2023/11/16 13:15:01;;;;;;;8.13;5.72;;;;;;;;;;10021455;28;20628;-73
2023/11/16 13:19:54;;;;;;;8.55;6.20;;;;;;;;;;10021998;28;20364;-73
2023/11/16 13:24:46;;;;;;;8.48;6.40;;;;;;;;;;10027203;28;20061;-71
2023/11/16 13:29:40;;;;;;;11.57;7.18;;;;;;;;;;10030145;28;20046;-71
2023/11/16 13:34:32;;;;;;;10.25;6.95;;;;;;;;;;10029245;28;20179;-71
2023/11/16 13:39:27;;;;;;;8.25;7.13;;;;;;;;;;10028295;28;20481;-71
2023/11/16 13:44:19;;;;;;;10.38;7.65;;;;;;;;;;10026117;28;20068;-71
2023/11/16 13:49:11;;;;;;;9.70;6.97;;;;;;;;;;10029593;28;20042;-71
2023/11/16 13:54:03;;;;;;;7.40;6.45;;;;;;;;;;10029071;28;20085;-71
2023/11/16 13:58:55;;;;;;;8.93;7.22;;;;;;;;;;10028350;28;20042;-73
2023/11/16 14:03:50;;;;;;;17.40;9.73;;;;;;;;;;10027861;28;20246;-70
2023/11/16 14:08:43;;;;;;;8.27;6.80;;;;;;;;;;10026442;28;20049;-71
2023/11/16 14:13:37;;;;;;;10.50;8.30;;;;;;;;;;10026877;28;20053;-70
2023/11/16 14:18:29;;;;;;;13.93;11.02;;;;;;;;;;10012190;28;20046;-73
2023/11/16 14:23:23;;;;;;;13.20;8.82;;;;;;;;;;10013747;28;20535;-73
2023/11/16 14:28:16;;;;;;;15.20;9.68;;;;;;;;;;10018973;28;20405;-73
2023/11/16 14:33:12;;;;;;;11.52;7.25;;;;;;;;;;10021825;28;20544;-73
2023/11/16 14:38:05;;;;;;;18.67;8.38;;;;;;;;;;10025878;28;20057;-70
2023/11/16 14:42:56;;;;;;;12.65;9.18;;;;;;;;;;10015840;28;20050;-73
2023/11/16 14:47:48;;;;;;;13.70;9.40;;;;;;;;;;10019331;28;20466;-70
2023/11/16 14:52:41;;;;;;;11.90;8.23;;;;;;;;;;10025671;28;20445;-73
2023/11/16 14:57:37;;;;;;;10.98;8.85;;;;;;;;;;10019090;28;20050;-71
2023/11/16 15:02:29;;;;;;;13.43;8.20;;;;;;;;;;10019981;28;20054;-73
2023/11/16 15:07:22;;;;;;;12.65;10.65;;;;;;;;;;10026114;28;20136;-71
2023/11/16 15:12:14;;;;;;;10.35;8.65;;;;;;;;;;10021425;28;20070;-72
2023/11/16 15:17:06;;;;;;;12.23;9.18;;;;;;;;;;10021101;28;20065;-72
2023/11/16 15:21:58;;;;;;;13.27;10.55;;;;;;;;;;10024374;28;20576;-72
2023/11/16 15:26:50;;;;;;;19.92;12.55;;;;;;;;;;10023543;28;20042;-73
2023/11/16 15:31:45;;;;;;;12.60;10.82;;;;;;;;;;10020283;28;20052;-72
2023/11/16 15:36:37;;;;;;;13.50;9.40;;;;;;;;;;10013597;28;20042;-73
2023/11/16 15:41:31;;;;;;;10.70;8.00;;;;;;;;;;10016268;28;20054;-73
2023/11/16 15:46:23;;;;;;;11.20;9.75;;;;;;;;;;10014202;28;20553;-73
2023/11/16 15:51:14;;;;;;;14.52;11.98;;;;;;;;;;10015940;28;20132;-72
2023/11/16 15:56:09;;;;;;;14.63;12.43;;;;;;;;;;10019988;28;20077;-72
2023/11/16 16:01:02;;;;;;;29.20;20.25;;;;;;;;;;10021365;28;20045;-72
2023/11/16 16:05:54;;;;;;;15.07;13.50;;;;;;;;;;10019162;28;20184;-72
2023/11/16 16:10:46;;;;;;;18.48;14.40;;;;;;;;;;10019222;28;20054;-72
2023/11/16 16:15:38;;;;;;;17.75;15.00;;;;;;;;;;10019249;28;20450;-72
2023/11/16 16:20:30;;;;;;;13.32;9.00;;;;;;;;;;10019022;28;20049;-72
2023/11/16 16:25:22;;;;;;;19.65;14.43;;;;;;;;;;10015151;28;20441;-72
2023/11/16 16:30:15;;;;;;;18.65;14.98;;;;;;;;;;10018654;28;20085;-72
2023/11/16 16:35:08;;;;;;;22.85;12.77;;;;;;;;;;10007316;28;20045;-72
2023/11/16 16:40:00;;;;;;;35.42;29.48;;;;;;;;;;10019396;28;20473;-73
2023/11/16 16:44:52;;;;;;;13.02;11.05;;;;;;;;;;10010888;28;20050;-72
2023/11/16 16:49:44;;;;;;;12.65;10.18;;;;;;;;;;10017503;28;20070;-72
2023/11/16 16:54:36;;;;;;;15.93;11.40;;;;;;;;;;10018617;28;20154;-72
2023/11/16 16:59:28;;;;;;;13.98;10.98;;;;;;;;;;10026694;28;20045;-72
2023/11/16 17:04:20;;;;;;;11.85;8.43;;;;;;;;;;10026987;28;20124;-72
2023/11/16 17:09:12;;;;;;;16.50;12.32;;;;;;;;;;10025484;28;20042;-71
2023/11/16 17:14:06;;;;;;;22.42;18.42;;;;;;;;;;10024558;28;20042;-72
2023/11/16 17:18:58;;;;;;;16.85;13.23;;;;;;;;;;10025194;28;20045;-72
2023/11/16 17:23:53;;;;;;;10.50;9.40;;;;;;;;;;10015617;28;20096;-72
2023/11/16 17:28:47;;;;;;;14.88;10.75;;;;;;;;;;10021835;28;20049;-72
2023/11/16 17:33:39;;;;;;;15.50;11.07;;;;;;;;;;10018968;28;20362;-72
2023/11/16 17:38:35;;;;;;;12.80;10.38;;;;;;;;;;10022319;28;20049;-72
2023/11/16 17:43:27;;;;;;;21.50;14.18;;;;;;;;;;10025918;28;20042;-72
2023/11/16 17:48:19;;;;;;;14.00;12.40;;;;;;;;;;10023630;28;20046;-72
2023/11/16 17:53:11;;;;;;;23.08;18.45;;;;;;;;;;10024919;28;20095;-73
2023/11/16 17:58:03;;;;;;;21.58;16.80;;;;;;;;;;10025454;28;20141;-72
2023/11/16 18:02:56;;;;;;;18.13;15.63;;;;;;;;;;10023791;28;20050;-72
2023/11/16 18:07:48;;;;;;;21.65;18.45;;;;;;;;;;10023261;28;20477;-72
2023/11/16 18:12:44;;;;;;;21.45;19.02;;;;;;;;;;10024863;28;20417;-73
2023/11/16 18:17:36;;;;;;;19.85;15.52;;;;;;;;;;10023786;28;20108;-72
2023/11/16 18:22:28;;;;;;;32.60;22.33;;;;;;;;;;10023203;28;20376;-73
2023/11/16 18:27:20;;;;;;;24.40;21.60;;;;;;;;;;10023497;28;20157;-72
2023/11/16 18:32:13;;;;;;;20.20;17.27;;;;;;;;;;10024886;28;20038;-72
2023/11/16 18:37:05;;;;;;;25.10;20.67;;;;;;;;;;10023283;28;20076;-72
2023/11/16 18:41:57;;;;;;;23.98;19.50;;;;;;;;;;10023490;28;20049;-72
2023/11/16 18:46:49;;;;;;;29.00;23.92;;;;;;;;;;10022911;28;20141;-73
2023/11/16 18:51:41;;;;;;;21.77;18.27;;;;;;;;;;10022265;28;20116;-72
2023/11/16 18:56:33;;;;;;;25.83;21.30;;;;;;;;;;10022525;28;20105;-72
2023/11/16 19:01:24;;;;;;;24.10;21.35;;;;;;;;;;10022717;28;20049;-72
2023/11/16 19:06:17;;;;;;;27.27;24.20;;;;;;;;;;10023376;28;20561;-72
2023/11/16 19:11:09;;;;;;;27.88;22.40;;;;;;;;;;10022617;28;20041;-72
2023/11/16 19:16:01;;;;;;;33.55;24.27;;;;;;;;;;10021869;28;20128;-72
2023/11/16 19:20:53;;;;;;;35.05;25.67;;;;;;;;;;10021326;28;20041;-72
2023/11/16 19:25:50;;;;;;;24.80;21.10;;;;;;;;;;10022390;28;20045;-72
2023/11/16 19:30:42;;;;;;;26.60;22.52;;;;;;;;;;10009736;28;20038;-72
2023/11/16 19:35:35;;;;;;;36.38;31.85;;;;;;;;;;10025359;28;20081;-72
2023/11/16 19:40:27;;;;;;;30.73;26.33;;;;;;;;;;10024009;28;20457;-72
2023/11/16 19:45:29;;;;;;;32.50;28.27;;;;;;;;;;10022393;28;20049;-72
2023/11/16 19:50:22;;;;;;;34.20;30.02;;;;;;;;;;10014351;28;20052;-72
2023/11/16 19:55:16;;;;;;;28.48;25.48;;;;;;;;;;10024925;28;20144;-72
2023/11/16 20:00:09;;;;;;;31.75;25.25;;;;;;;;;;10024275;28;20034;-72
2023/11/16 20:05:00;;;;;;;29.08;25.88;;;;;;;;;;10022185;28;20045;-72
2023/11/16 20:09:56;;;;;;;23.65;21.08;;;;;;;;;;10022184;28;20123;-72
2023/11/16 20:14:55;;;;;;;20.98;18.42;;;;;;;;;;10023021;28;20042;-72
2023/11/16 20:19:47;;;;;;;19.83;16.80;;;;;;;;;;10016692;28;20054;-72
2023/11/16 20:24:39;;;;;;;27.45;17.27;;;;;;;;;;10020172;28;20073;-72
2023/11/16 20:29:32;;;;;;;23.13;17.20;;;;;;;;;;10020531;28;20046;-72
2023/11/16 20:34:23;;;;;;;27.08;15.75;;;;;;;;;;10033430;28;20054;-72
2023/11/16 20:39:16;;;;;;;15.90;12.95;;;;;;;;;;10033482;28;20049;-72
2023/11/16 20:44:07;;;;;;;16.33;12.80;;;;;;;;;;10033302;28;20433;-72
2023/11/16 20:48:59;;;;;;;17.55;14.52;;;;;;;;;;10032962;28;20049;-72
2023/11/16 20:53:52;;;;;;;17.02;13.55;;;;;;;;;;10032768;28;20140;-72
2023/11/16 20:58:44;;;;;;;20.38;18.15;;;;;;;;;;10032780;28;20038;-72
2023/11/16 21:03:36;;;;;;;13.90;12.02;;;;;;;;;;10032103;28;20052;-73
2023/11/16 21:08:29;;;;;;;14.82;13.25;;;;;;;;;;10032791;28;20570;-72
2023/11/16 21:13:21;;;;;;;17.88;15.90;;;;;;;;;;10031988;28;20050;-72
2023/11/16 21:18:13;;;;;;;26.15;18.77;;;;;;;;;;10032152;28;20041;-72
2023/11/16 21:23:05;;;;;;;32.30;25.10;;;;;;;;;;10031621;28;20068;-73
2023/11/16 21:27:57;;;;;;;21.67;17.88;;;;;;;;;;10031005;28;20045;-72
2023/11/16 21:32:49;;;;;;;21.73;16.00;;;;;;;;;;10028905;28;20052;-72
2023/11/16 21:37:46;;;;;;;20.63;16.48;;;;;;;;;;10026009;28;20066;-72
2023/11/16 21:42:39;;;;;;;14.15;10.75;;;;;;;;;;10015276;28;20067;-72
2023/11/16 21:47:32;;;;;;;21.27;17.10;;;;;;;;;;10023594;28;20138;-73
2023/11/16 21:52:24;;;;;;;24.20;18.75;;;;;;;;;;10025239;28;20417;-72
2023/11/16 21:57:16;;;;;;;10.32;9.00;;;;;;;;;;10024289;28;20124;-72
2023/11/16 22:02:08;;;;;;;10.85;6.90;;;;;;;;;;10025177;28;20128;-72
2023/11/16 22:07:00;;;;;;;8.02;7.07;;;;;;;;;;10025498;28;20034;-72
2023/11/16 22:11:52;;;;;;;8.57;6.47;;;;;;;;;;10024708;28;20383;-72
2023/11/16 22:16:44;;;;;;;13.88;8.68;;;;;;;;;;10013552;28;20045;-72
2023/11/16 22:21:36;;;;;;;15.82;7.35;;;;;;;;;;10025211;28;20081;-72
2023/11/16 22:26:29;;;;;;;9.30;5.88;;;;;;;;;;10024211;28;20422;-72
2023/11/16 22:31:24;;;;;;;9.93;5.38;;;;;;;;;;10024392;28;20053;-72
2023/11/16 22:36:16;;;;;;;12.48;5.13;;;;;;;;;;10023840;28;20542;-72
2023/11/16 22:41:08;;;;;;;8.60;5.18;;;;;;;;;;10023856;28;20045;-72
2023/11/16 22:46:00;;;;;;;9.13;5.00;;;;;;;;;;10023897;28;20042;-72
2023/11/16 22:50:55;;;;;;;7.10;3.47;;;;;;;;;;10023275;28;20051;-72
2023/11/16 22:55:47;;;;;;;8.25;5.18;;;;;;;;;;10022788;28;20052;-72
2023/11/16 23:00:46;;;;;;;7.47;4.45;;;;;;;;;;10023405;28;20345;-72
2023/11/16 23:05:40;;;;;;;5.10;3.72;;;;;;;;;;10023205;28;20045;-72
2023/11/16 23:10:32;;;;;;;10.45;5.10;;;;;;;;;;10023551;28;20042;-72
2023/11/16 23:15:24;;;;;;;4.85;3.42;;;;;;;;;;10022671;28;20541;-72
2023/11/16 23:20:16;;;;;;;10.07;4.78;;;;;;;;;;10025710;28;20080;-72
2023/11/16 23:25:14;;;;;;;10.50;5.22;;;;;;;;;;10024825;28;20066;-72
2023/11/16 23:30:07;;;;;;;9.90;5.30;;;;;;;;;;10024472;28;20133;-72
2023/11/16 23:35:02;;;;;;;9.30;6.15;;;;;;;;;;10025156;28;20060;-72
2023/11/16 23:39:55;;;;;;;6.90;3.75;;;;;;;;;;10025225;28;20044;-72
2023/11/16 23:44:47;;;;;;;9.98;6.25;;;;;;;;;;10026552;28;20485;-73
2023/11/16 23:49:39;;;;;;;9.55;4.72;;;;;;;;;;10024826;28;20488;-72
2023/11/16 23:54:31;;;;;;;10.30;5.72;;;;;;;;;;10024281;28;20048;-72
2023/11/16 23:59:23;;;;;;;15.45;11.75;;;;;;;;;;10023120;28;20433;-72
